Time;durP1;ratioP1;P1;durP2;ratioP2;P2;SDS_P1;SDS_P2;PMS_P1;PMS_P2;Temp;Humidity;BMP_temperature;BMP_pressure;BME280_temperature;BME280_humidity;BME280_pressure;Samples;Min_cycle;Max_cycle;Signal;HPM_P1;HPM_P2
2022/08/12 00:43:36;;;;;;;6.05;4.10;;;23.20;54.40;;;;;;5015095;28;20083;-15
2022/08/12 00:48:48;;;;;;;8.88;4.22;;;23.10;54.80;;;;;;5014758;28;20500;-16
2022/08/12 00:51:16;;;;;;;7.20;4.00;;;23.10;56.30;;;;;;5014543;28;20034;-14
2022/08/12 00:53:42;;;;;;;6.20;3.85;;;22.90;56.00;;;;;;5014591;28;20481;-14
2022/08/12 00:56:09;;;;;;;7.63;3.72;;;22.90;55.90;;;;;;5014515;28;20126;-15
2022/08/12 00:58:38;;;;;;;6.85;3.40;;;22.90;55.20;;;;;;5014482;28;20088;-14
2022/08/12 01:01:07;;;;;;;5.70;3.05;;;22.90;54.80;;;;;;5014188;28;20057;-16
2022/08/12 01:11:53;;;;;;;5.55;3.45;;;23.10;53.40;;;;;;5014468;28;20500;-14
2022/08/12 01:14:24;;;;;;;4.60;3.10;;;23.10;53.20;;;;;;5014509;28;20026;-14
2022/08/12 01:16:54;;;;;;;3.78;2.45;;;23.20;52.50;;;;;;5013999;28;20508;-14
2022/08/12 01:19:22;;;;;;;4.95;2.95;;;23.20;52.00;;;;;;5014401;28;20099;-14
2022/08/12 01:22:01;;;;;;;6.00;3.00;;;23.20;51.80;;;;;;5014058;28;20385;-14
2022/08/12 01:24:52;;;;;;;6.97;3.03;;;23.30;51.40;;;;;;5013949;28;20029;-14
2022/08/12 01:27:20;;;;;;;3.10;2.80;;;23.40;51.40;;;;;;5014034;28;20025;-14
2022/08/12 01:29:50;;;;;;;4.43;2.97;;;23.40;51.50;;;;;;5014268;28;20037;-15
2022/08/12 01:32:19;;;;;;;4.07;3.00;;;23.40;51.40;;;;;;5013821;28;20083;-16
2022/08/12 01:35:04;;;;;;;4.53;2.90;;;23.40;51.60;;;;;;5014264;28;20034;-14
2022/08/12 01:37:36;;;;;;;4.75;3.22;;;23.40;51.90;;;;;;5013745;28;20432;-14
2022/08/12 01:40:03;;;;;;;4.30;3.35;;;23.40;51.90;;;;;;5013848;28;20083;-16
2022/08/12 01:42:45;;;;;;;4.68;2.83;;;23.40;51.80;;;;;;5012719;28;20022;-16
2022/08/12 01:45:13;;;;;;;4.35;2.80;;;23.40;52.00;;;;;;5013468;28;20045;-15
2022/08/12 01:48:02;;;;;;;6.53;3.00;;;23.40;51.60;;;;;;5013932;28;20026;-16
2022/08/12 01:50:46;;;;;;;3.55;2.67;;;23.40;51.70;;;;;;5013682;28;20181;-14
2022/08/12 01:53:14;;;;;;;4.20;2.63;;;23.30;51.00;;;;;;5013749;28;20038;-15
2022/08/12 01:55:44;;;;;;;4.30;2.70;;;23.40;51.00;;;;;;5013840;28;20022;-15
2022/08/12 02:01:23;;;;;;;5.07;2.58;;;23.40;51.00;;;;;;5014229;28;20056;-14
2022/08/12 02:13:21;;;;;;;3.60;2.90;;;23.40;51.90;;;;;;5013434;28;20041;-14
2022/08/12 02:16:08;;;;;;;6.67;2.97;;;23.30;51.90;;;;;;5013272;28;20033;-14
2022/08/12 02:18:57;;;;;;;3.22;2.70;;;23.30;51.90;;;;;;5013325;28;20117;-15
2022/08/12 02:21:38;;;;;;;5.03;2.70;;;23.20;52.40;;;;;;5013323;28;20101;-14
2022/08/12 02:24:08;;;;;;;4.97;3.08;;;23.20;52.30;;;;;;5013217;28;20060;-14
2022/08/12 02:26:39;;;;;;;3.10;2.80;;;23.10;52.10;;;;;;5013550;28;20022;-14
2022/08/12 02:29:06;;;;;;;4.53;2.67;;;23.10;52.40;;;;;;5013045;28;20029;-15
2022/08/12 02:31:36;;;;;;;3.67;2.63;;;23.10;52.40;;;;;;5013096;28;20038;-15
2022/08/12 02:34:02;;;;;;;3.17;2.65;;;23.10;52.20;;;;;;5013442;28;20022;-14
2022/08/12 02:36:29;;;;;;;3.45;2.42;;;23.00;52.40;;;;;;5013430;28;20028;-15
2022/08/12 02:38:57;;;;;;;5.60;2.85;;;23.00;52.90;;;;;;5012831;28;20097;-16
2022/08/12 02:41:25;;;;;;;5.15;2.90;;;22.90;54.40;;;;;;5013672;28;20056;-14
2022/08/12 02:43:58;;;;;;;4.85;2.80;;;22.90;56.00;;;;;;5013334;28;20030;-16
2022/08/12 02:46:33;;;;;;;4.60;3.10;;;22.70;56.00;;;;;;5013394;28;20410;-15
2022/08/12 02:49:21;;;;;;;4.50;3.05;;;22.50;57.20;;;;;;5012848;28;20109;-14
2022/08/12 02:51:47;;;;;;;3.30;3.00;;;22.40;57.90;;;;;;5012980;28;20041;-16
2022/08/12 02:54:14;;;;;;;3.65;3.00;;;22.30;57.90;;;;;;5013176;28;20026;-15
2022/08/12 02:56:42;;;;;;;5.00;2.90;;;22.20;58.40;;;;;;5012807;28;20084;-15
2022/08/12 02:59:11;;;;;;;6.07;2.90;;;22.10;58.40;;;;;;5013052;28;20034;-14
2022/08/12 03:01:46;;;;;;;6.55;2.80;;;21.90;58.60;;;;;;5013243;28;20030;-15
2022/08/12 03:04:28;;;;;;;3.70;2.92;;;21.80;60.00;;;;;;5013219;28;20052;-14
2022/08/12 03:07:09;;;;;;;3.70;2.95;;;21.70;60.40;;;;;;5012488;28;20544;-16
2022/08/12 03:09:44;;;;;;;5.93;3.00;;;21.60;60.90;;;;;;5011607;28;20026;-15
2022/08/12 03:12:12;;;;;;;7.10;3.03;;;21.50;60.00;;;;;;5013060;28;20036;-14
2022/08/12 03:14:42;;;;;;;4.82;3.17;;;21.50;59.90;;;;;;5012795;28;20524;-14
2022/08/12 03:17:26;;;;;;;4.03;2.88;;;21.50;60.00;;;;;;5012651;28;20057;-15
2022/08/12 03:19:53;;;;;;;5.38;3.00;;;21.50;61.30;;;;;;5013082;28;20030;-15
2022/08/12 03:22:22;;;;;;;5.35;2.67;;;21.40;60.10;;;;;;5012724;28;20022;-14
2022/08/12 03:24:49;;;;;;;4.10;2.40;;;21.40;59.90;;;;;;5012707;28;20034;-16
2022/08/12 03:27:16;;;;;;;3.83;2.60;;;21.30;59.50;;;;;;5012840;28;20029;-15
2022/08/12 03:29:48;;;;;;;3.03;2.72;;;21.40;59.20;;;;;;5016355;28;20083;-15
2022/08/12 03:32:15;;;;;;;4.03;2.47;;;21.40;59.50;;;;;;5016084;28;20034;-14
2022/08/12 03:34:42;;;;;;;4.72;2.90;;;21.30;59.60;;;;;;5016362;28;20021;-14
2022/08/12 03:37:10;;;;;;;4.35;2.95;;;21.30;59.70;;;;;;5016146;28;20028;-15
2022/08/12 03:42:32;;;;;;;3.45;2.60;;;21.30;59.60;;;;;;5016411;28;20033;-14
2022/08/12 04:02:00;;;;;;;3.50;2.72;;;21.20;58.80;;;;;;5016060;28;20045;-15
2022/08/12 04:04:33;;;;;;;4.38;2.60;;;21.20;58.70;;;;;;5015820;28;20026;-15
2022/08/12 04:07:09;;;;;;;6.83;3.00;;;21.30;58.90;;;;;;5015140;28;20054;-14
2022/08/12 04:09:39;;;;;;;2.60;2.40;;;21.20;60.00;;;;;;5015219;28;20026;-13
2022/08/12 04:14:51;;;;;;;3.20;2.60;;;21.30;59.70;;;;;;5015499;28;20064;-15
2022/08/12 04:17:18;;;;;;;3.58;3.00;;;21.30;60.40;;;;;;5015495;28;20033;-14
2022/08/12 04:19:47;;;;;;;4.00;2.70;;;21.20;61.50;;;;;;5015515;28;20030;-14
2022/08/12 04:22:14;;;;;;;4.65;3.00;;;21.20;60.80;;;;;;5015526;28;20088;-16
2022/08/12 04:24:43;;;;;;;4.55;3.33;;;21.20;60.50;;;;;;5014984;28;20040;-15
2022/08/12 04:27:10;;;;;;;3.97;3.33;;;21.10;60.90;;;;;;5015151;28;20082;-14
2022/08/12 04:29:38;;;;;;;4.55;3.30;;;21.00;61.80;;;;;;5015267;28;20030;-15
2022/08/12 04:32:05;;;;;;;3.45;2.80;;;21.00;61.60;;;;;;5014836;28;20026;-15
2022/08/12 04:34:32;;;;;;;4.50;2.92;;;20.90;61.30;;;;;;5014941;28;20033;-14
2022/08/12 04:36:58;;;;;;;3.72;2.80;;;20.90;61.10;;;;;;5014808;28;20109;-15
2022/08/12 04:39:25;;;;;;;4.13;2.95;;;20.80;61.40;;;;;;5014471;28;20560;-15
2022/08/12 04:41:51;;;;;;;5.20;2.90;;;20.80;61.70;;;;;;5014827;28;20026;-16
2022/08/12 04:44:17;;;;;;;10.02;3.97;;;20.80;61.20;;;;;;5014717;28;20033;-16
2022/08/12 04:46:43;;;;;;;4.97;2.90;;;20.80;61.50;;;;;;5014730;28;20038;-14
2022/08/12 04:49:10;;;;;;;5.68;3.30;;;20.80;61.80;;;;;;5014826;28;20045;-14
2022/08/12 04:51:36;;;;;;;4.95;2.88;;;20.70;62.90;;;;;;5014825;28;20025;-16
2022/08/12 04:54:03;;;;;;;7.28;3.20;;;20.80;62.70;;;;;;5014884;28;20389;-16
2022/08/12 04:56:31;;;;;;;5.93;3.55;;;20.80;62.50;;;;;;5014876;28;20036;-16
2022/08/12 04:58:58;;;;;;;5.18;3.10;;;20.80;62.80;;;;;;5014223;28;20450;-14
2022/08/12 05:01:31;;;;;;;6.95;3.53;;;20.80;62.60;;;;;;5014743;28;20104;-16
2022/08/12 05:03:58;;;;;;;4.50;2.92;;;20.80;62.70;;;;;;5013291;28;20030;-16
2022/08/12 05:06:25;;;;;;;19.38;5.03;;;20.80;62.50;;;;;;5014307;28;20049;-14
2022/08/12 05:08:58;;;;;;;11.93;4.53;;;20.90;62.30;;;;;;5014103;28;20080;-14
2022/08/12 05:11:24;;;;;;;16.48;4.50;;;20.90;62.50;;;;;;5014657;28;20026;-14
2022/08/12 05:13:59;;;;;;;6.13;3.42;;;20.90;63.00;;;;;;5014107;28;20052;-14
2022/08/12 05:16:26;;;;;;;4.95;3.22;;;20.90;62.60;;;;;;5014533;28;20077;-14
2022/08/12 05:18:52;;;;;;;13.52;5.03;;;20.90;62.70;;;;;;5013925;28;20030;-14
2022/08/12 05:21:18;;;;;;;10.85;4.68;;;20.90;62.30;;;;;;5014397;28;20026;-14
2022/08/12 05:23:44;;;;;;;16.77;5.20;;;21.00;62.60;;;;;;5014265;28;20064;-14
2022/08/12 05:26:10;;;;;;;7.63;3.47;;;21.00;62.40;;;;;;5014182;28;20521;-14
2022/08/12 05:28:36;;;;;;;5.57;3.58;;;21.00;62.40;;;;;;5012925;28;20095;-15
2022/08/12 05:31:02;;;;;;;5.53;3.70;;;21.00;62.30;;;;;;5013829;28;20108;-16
2022/08/12 05:33:37;;;;;;;3.83;3.13;;;21.00;62.20;;;;;;5013826;28;20485;-15
2022/08/12 05:36:08;;;;;;;6.85;3.88;;;21.00;62.30;;;;;;5014152;28;20381;-15
2022/08/12 05:41:20;;;;;;;8.38;4.00;;;21.10;62.80;;;;;;5014191;28;20112;-14
2022/08/12 05:43:48;;;;;;;6.60;3.83;;;21.10;62.70;;;;;;5013733;28;20029;-13
2022/08/12 05:46:14;;;;;;;5.45;3.63;;;21.10;62.90;;;;;;5013985;28;20033;-15
2022/08/12 05:48:40;;;;;;;7.47;3.50;;;21.10;62.50;;;;;;5013764;28;20079;-15
2022/08/12 05:51:10;;;;;;;4.68;3.03;;;21.10;62.60;;;;;;5012859;28;20025;-15
2022/08/12 05:53:39;;;;;;;5.07;3.28;;;21.20;62.50;;;;;;5013722;28;20105;-15
2022/08/12 05:56:05;;;;;;;11.13;4.60;;;21.20;62.90;;;;;;5013611;28;20022;-15
2022/08/12 05:58:33;;;;;;;4.95;3.58;;;21.30;62.90;;;;;;5013829;28;20029;-14
2022/08/12 06:01:00;;;;;;;23.13;7.65;;;21.30;63.30;;;;;;5013295;28;20406;-14
2022/08/12 06:03:26;;;;;;;8.00;3.65;;;21.30;63.90;;;;;;5013783;28;20088;-16
2022/08/12 06:05:52;;;;;;;5.13;3.42;;;21.30;64.10;;;;;;5013435;28;20048;-15
2022/08/12 06:08:18;;;;;;;7.03;3.67;;;21.30;63.70;;;;;;5013706;28;20105;-16
2022/08/12 06:10:48;;;;;;;5.30;3.30;;;21.30;63.40;;;;;;5013358;28;20514;-14
2022/08/12 06:13:15;;;;;;;7.15;3.13;;;21.40;63.10;;;;;;5013334;28;20037;-16
2022/08/12 06:15:41;;;;;;;6.05;3.00;;;21.30;63.10;;;;;;5014129;28;20034;-14
2022/08/12 06:18:09;;;;;;;3.47;3.00;;;21.40;62.80;;;;;;5013611;28;20053;-14
2022/08/12 06:20:36;;;;;;;7.53;3.83;;;21.40;62.70;;;;;;5013333;28;20021;-14
2022/08/12 06:23:02;;;;;;;5.10;3.42;;;21.50;62.90;;;;;;5013035;28;20022;-14
2022/08/12 06:25:29;;;;;;;4.50;3.13;;;21.50;62.60;;;;;;5013241;28;20022;-14
2022/08/12 06:27:57;;;;;;;4.22;3.58;;;21.70;62.30;;;;;;5013287;28;20490;-15
2022/08/12 06:30:28;;;;;;;4.97;3.13;;;21.80;62.40;;;;;;5013224;28;20022;-15
2022/08/12 06:32:55;;;;;;;5.63;3.67;;;21.90;61.70;;;;;;5013235;28;20034;-17
2022/08/12 06:35:21;;;;;;;3.85;2.95;;;22.00;61.20;;;;;;5013351;28;20038;-15
2022/08/12 06:37:49;;;;;;;3.63;2.85;;;22.20;61.10;;;;;;5013361;28;20026;-14
2022/08/12 06:42:46;;;;;;;5.50;3.58;;;22.40;61.20;;;;;;5013126;28;20441;-14
2022/08/12 06:43:04;;;;;;;5.00;3.22;;;22.50;60.60;;;;;;5012859;28;20030;-15
2022/08/12 06:45:31;;;;;;;4.25;3.30;;;22.70;60.10;;;;;;5013338;28;20109;-15
2022/08/12 06:48:00;;;;;;;5.22;3.10;;;22.80;59.20;;;;;;5013355;28;20030;-15
2022/08/12 06:50:28;;;;;;;5.70;3.45;;;22.90;58.90;;;;;;5013150;28;20068;-15
2022/08/12 06:52:54;;;;;;;8.35;3.53;;;23.00;58.90;;;;;;5012678;28;20048;-15
2022/08/12 06:55:21;;;;;;;4.20;3.20;;;23.00;58.50;;;;;;5012129;28;20022;-16
2022/08/12 06:57:55;;;;;;;7.85;3.55;;;23.10;57.80;;;;;;5013246;28;20040;-14
2022/08/12 07:00:24;;;;;;;4.93;3.25;;;23.30;56.90;;;;;;5012967;28;20556;-14
2022/08/12 07:02:54;;;;;;;4.53;3.20;;;23.30;56.00;;;;;;5015424;28;20426;-14
2022/08/12 07:05:24;;;;;;;6.13;3.10;;;23.50;55.90;;;;;;5016631;28;20026;-14
2022/08/12 07:07:58;;;;;;;6.97;3.10;;;23.60;55.40;;;;;;5016574;28;20038;-14
2022/08/12 07:10:29;;;;;;;4.47;2.90;;;23.70;55.30;;;;;;5016888;28;20030;-15
2022/08/12 07:12:55;;;;;;;4.82;2.70;;;23.90;54.70;;;;;;5016572;28;20036;-15
2022/08/12 07:15:24;;;;;;;7.05;3.30;;;24.00;54.30;;;;;;5015199;28;20471;-14
2022/08/12 07:17:59;;;;;;;4.47;3.10;;;24.30;53.60;;;;;;5016371;28;20026;-15
2022/08/12 07:20:28;;;;;;;5.68;3.30;;;24.40;53.20;;;;;;5016387;28;20041;-14
2022/08/12 07:22:58;;;;;;;4.70;3.10;;;24.60;51.70;;;;;;5015980;28;20026;-13
2022/08/12 07:25:30;;;;;;;3.55;2.92;;;24.80;51.60;;;;;;5016558;28;20034;-14
2022/08/12 07:28:02;;;;;;;6.70;3.03;;;25.00;51.20;;;;;;5016286;28;20481;-14
2022/08/12 07:30:35;;;;;;;7.10;3.20;;;25.20;51.40;;;;;;5016543;28;20038;-14
2022/08/12 07:33:04;;;;;;;4.55;3.10;;;25.30;50.30;;;;;;5016163;28;20034;-14
2022/08/12 07:35:31;;;;;;;5.00;2.85;;;25.50;49.70;;;;;;5016341;28;20469;-16
2022/08/12 07:37:59;;;;;;;9.43;3.33;;;25.90;49.60;;;;;;5016144;28;20022;-15
2022/08/12 07:40:28;;;;;;;5.78;3.58;;;26.00;48.80;;;;;;5016412;28;20065;-15
2022/08/12 07:42:55;;;;;;;6.20;3.20;;;26.30;46.20;;;;;;5015726;28;20477;-15
2022/08/12 07:45:23;;;;;;;7.40;3.00;;;26.40;46.50;;;;;;5016229;28;20026;-15
2022/08/12 07:47:50;;;;;;;4.43;2.90;;;26.50;46.50;;;;;;5016094;28;20034;-15
2022/08/12 07:50:18;;;;;;;3.75;2.92;;;26.60;46.60;;;;;;5016104;28;20512;-15
2022/08/12 07:52:45;;;;;;;3.92;2.58;;;26.60;47.00;;;;;;5014529;28;20030;-15
2022/08/12 07:55:14;;;;;;;6.28;3.15;;;26.60;46.70;;;;;;5015945;28;20028;-14
2022/08/12 07:57:54;;;;;;;4.65;2.80;;;26.50;47.10;;;;;;5016087;28;20033;-14
2022/08/12 08:00:20;;;;;;;4.28;2.95;;;26.60;46.30;;;;;;5015651;28;20033;-14
2022/08/12 08:02:48;;;;;;;4.45;3.03;;;26.60;46.00;;;;;;5015741;28;20490;-16
2022/08/12 08:05:15;;;;;;;5.63;3.00;;;26.70;46.10;;;;;;5015526;28;20033;-15
2022/08/12 08:07:41;;;;;;;5.82;2.90;;;26.70;46.10;;;;;;5015322;28;20050;-14
2022/08/12 08:10:10;;;;;;;4.13;2.83;;;26.80;45.80;;;;;;5015337;28;20490;-14
2022/08/12 08:12:52;;;;;;;4.75;2.70;;;27.00;45.50;;;;;;5015326;28;20033;-14
2022/08/12 08:15:19;;;;;;;6.28;2.70;;;27.30;44.60;;;;;;5015057;28;20113;-15
2022/08/12 08:18:03;;;;;;;3.90;2.72;;;27.50;43.90;;;;;;5015438;28;20429;-14
2022/08/12 08:20:33;;;;;;;5.90;2.97;;;27.80;43.20;;;;;;5015473;28;20032;-14
2022/08/12 08:23:06;;;;;;;4.50;2.90;;;27.90;43.30;;;;;;5015003;28;20021;-15
2022/08/12 08:25:37;;;;;;;7.95;2.95;;;27.90;43.60;;;;;;5015537;28;20030;-15
2022/08/12 08:28:06;;;;;;;6.70;3.00;;;28.10;41.70;;;;;;5015144;28;20520;-14
2022/08/12 08:30:33;;;;;;;4.75;3.05;;;28.30;42.40;;;;;;5015358;28;20026;-14
2022/08/12 08:32:59;;;;;;;5.95;3.30;;;28.40;42.80;;;;;;5015011;28;20116;-14
2022/08/12 08:35:26;;;;;;;4.43;2.88;;;28.70;40.10;;;;;;5015225;28;20057;-14
2022/08/12 08:37:52;;;;;;;4.25;2.85;;;29.00;40.30;;;;;;5014998;28;20060;-14
2022/08/12 08:43:03;;;;;;;6.70;2.80;;;29.50;39.10;;;;;;5014971;28;20548;-15
2022/08/12 08:45:30;;;;;;;3.65;2.72;;;29.80;39.20;;;;;;5015072;28;20033;-14
2022/08/12 08:47:58;;;;;;;4.72;3.08;;;29.80;39.60;;;;;;5015071;28;20053;-14
2022/08/12 08:50:23;;;;;;;4.97;2.92;;;30.00;38.30;;;;;;5014966;28;20034;-14
2022/08/12 08:52:49;;;;;;;5.68;2.80;;;30.30;39.10;;;;;;5014366;28;20482;-15
2022/08/12 08:55:16;;;;;;;3.58;2.65;;;30.80;38.60;;;;;;5014538;28;20026;-15
2022/08/12 08:57:44;;;;;;;4.38;2.40;;;31.00;37.80;;;;;;5014864;28;20065;-14
2022/08/12 09:00:15;;;;;;;4.70;2.45;;;31.00;35.10;;;;;;5014801;28;20026;-14
2022/08/12 09:02:42;;;;;;;3.58;2.55;;;30.60;35.20;;;;;;5014498;28;20037;-14
2022/08/12 09:05:08;;;;;;;6.55;2.40;;;30.40;36.40;;;;;;5014199;28;20494;-15
2022/08/12 09:07:48;;;;;;;2.83;2.53;;;30.30;36.80;;;;;;5014276;28;20057;-15
2022/08/12 09:10:18;;;;;;;2.75;2.53;;;30.20;36.70;;;;;;5013121;28;20022;-14
2022/08/12 09:15:30;;;;;;;3.92;2.40;;;30.30;37.10;;;;;;5014540;28;20453;-16
2022/08/12 09:17:57;;;;;;;2.38;2.10;;;30.50;37.20;;;;;;5014184;28;20030;-15
2022/08/12 09:20:26;;;;;;;3.45;2.75;;;30.90;35.90;;;;;;5014229;28;20105;-14
2022/08/12 09:22:53;;;;;;;3.85;2.50;;;31.20;35.40;;;;;;5014255;28;20048;-15
2022/08/12 09:25:26;;;;;;;3.67;2.60;;;31.50;35.60;;;;;;5013371;28;20018;-14
2022/08/12 09:27:53;;;;;;;4.60;2.80;;;31.70;35.10;;;;;;5014149;28;20505;-15
2022/08/12 09:30:20;;;;;;;7.53;2.80;;;31.80;35.00;;;;;;5014253;28;20036;-16
2022/08/12 09:32:50;;;;;;;3.47;2.22;;;31.90;34.80;;;;;;5013858;28;20030;-14
2022/08/12 09:35:19;;;;;;;5.95;2.35;;;32.00;34.00;;;;;;5014193;28;20033;-14
2022/08/12 09:37:47;;;;;;;2.95;2.17;;;32.10;34.60;;;;;;5014146;28;20022;-14
2022/08/12 09:40:14;;;;;;;4.80;2.80;;;32.40;34.60;;;;;;5014022;28;20494;-14
2022/08/12 09:45:26;;;;;;;4.93;2.78;;;32.50;33.20;;;;;;5014088;28;20041;-14
2022/08/12 09:47:53;;;;;;;3.33;2.40;;;32.50;33.20;;;;;;5013766;28;20022;-14
2022/08/12 09:50:20;;;;;;;5.70;2.25;;;32.40;33.80;;;;;;5013969;28;20053;-15
2022/08/12 09:52:51;;;;;;;3.40;2.40;;;32.30;33.70;;;;;;5013848;28;20034;-14
2022/08/12 09:55:18;;;;;;;2.42;2.20;;;32.40;32.60;;;;;;5013788;28;20473;-13
2022/08/12 09:57:45;;;;;;;4.22;2.22;;;32.80;32.00;;;;;;5014047;28;20030;-13
2022/08/12 10:00:13;;;;;;;7.15;2.30;;;33.20;31.50;;;;;;5013467;28;20100;-14
2022/08/12 10:03:01;;;;;;;2.53;2.33;;;33.50;31.30;;;;;;5013495;28;20033;-14
2022/08/12 10:05:32;;;;;;;5.03;2.33;;;33.80;31.00;;;;;;5013822;28;20026;-14
2022/08/12 10:07:59;;;;;;;7.18;2.28;;;34.00;30.90;;;;;;5014375;28;20064;-14
2022/08/12 10:10:27;;;;;;;4.03;2.28;;;34.20;30.90;;;;;;5013301;28;20040;-16
2022/08/12 10:15:45;;;;;;;3.85;2.40;;;34.50;29.70;;;;;;5014091;28;20092;-15
2022/08/12 10:18:12;;;;;;;5.15;2.20;;;34.40;29.90;;;;;;5013408;28;20065;-14
2022/08/12 10:20:39;;;;;;;2.67;2.20;;;34.20;30.20;;;;;;5013455;28;20026;-14
2022/08/12 10:23:06;;;;;;;7.35;2.42;;;34.30;30.50;;;;;;5013375;28;20080;-14
2022/08/12 10:31:02;;;;;;;2.20;2.00;;;34.40;29.90;;;;;;5013400;28;20119;-14
2022/08/12 10:33:29;;;;;;;3.28;2.15;;;34.70;30.00;;;;;;5013595;28;20029;-14
2022/08/12 10:35:57;;;;;;;3.05;2.30;;;35.10;29.40;;;;;;5013558;28;20030;-13
2022/08/12 10:38:23;;;;;;;2.83;1.88;;;35.50;28.80;;;;;;5016768;28;20385;-15
2022/08/12 10:43:41;;;;;;;3.10;2.20;;;36.20;28.20;;;;;;5017622;28;20120;-15
2022/08/12 10:46:16;;;;;;;3.35;2.03;;;36.50;27.60;;;;;;5017073;28;20025;-14
2022/08/12 10:48:47;;;;;;;2.13;1.85;;;36.80;27.10;;;;;;5017313;28;20453;-14
2022/08/12 10:51:16;;;;;;;3.97;2.30;;;37.20;27.00;;;;;;5017200;28;20026;-14
2022/08/12 10:53:42;;;;;;;2.08;1.80;;;37.40;26.60;;;;;;5016900;28;20025;-15
2022/08/12 10:56:10;;;;;;;3.58;1.98;;;37.40;26.50;;;;;;5016896;28;20033;-15
2022/08/12 10:58:40;;;;;;;6.15;2.30;;;37.30;26.90;;;;;;5016786;28;20393;-14
2022/08/12 11:01:09;;;;;;;2.67;2.03;;;37.20;27.20;;;;;;5016701;28;20030;-13
2022/08/12 11:03:40;;;;;;;3.42;2.05;;;37.20;27.00;;;;;;5016713;28;20022;-13
2022/08/12 11:06:09;;;;;;;5.18;2.20;;;37.10;26.70;;;;;;5016414;28;20651;-14
2022/08/12 11:08:37;;;;;;;3.78;2.22;;;37.00;27.00;;;;;;5016741;28;20549;-13
2022/08/12 11:11:07;;;;;;;2.40;1.80;;;36.90;27.10;;;;;;5016437;28;20465;-13
2022/08/12 11:13:35;;;;;;;1.92;1.77;;;36.90;27.30;;;;;;5016733;28;20057;-16
2022/08/12 11:16:03;;;;;;;3.95;2.30;;;37.00;27.30;;;;;;5016490;28;20068;-15
2022/08/12 11:18:30;;;;;;;3.63;2.00;;;36.90;27.00;;;;;;5016727;28;20088;-15
2022/08/12 11:20:56;;;;;;;3.00;2.03;;;36.70;27.30;;;;;;5016227;28;20097;-14
2022/08/12 11:23:22;;;;;;;2.63;2.10;;;36.70;27.50;;;;;;5016211;28;20113;-15
2022/08/12 11:25:49;;;;;;;2.47;1.90;;;36.90;27.70;;;;;;5016311;28;20084;-14
2022/08/12 11:28:16;;;;;;;2.50;2.13;;;36.90;26.70;;;;;;5016223;28;20032;-15
2022/08/12 11:30:43;;;;;;;1.70;1.60;;;36.90;26.60;;;;;;5016288;28;20489;-14
2022/08/12 11:33:09;;;;;;;4.45;2.35;;;37.00;26.70;;;;;;5016167;28;20033;-14
2022/08/12 11:35:35;;;;;;;2.88;2.05;;;37.40;26.50;;;;;;5016394;28;20084;-14
2022/08/12 11:38:02;;;;;;;2.83;2.30;;;37.50;26.00;;;;;;5016351;28;20034;-14
2022/08/12 11:40:29;;;;;;;2.67;2.00;;;37.20;26.50;;;;;;5014651;28;20030;-14
2022/08/12 11:42:56;;;;;;;2.05;1.77;;;36.90;26.20;;;;;;5015742;28;20029;-14
2022/08/12 11:45:22;;;;;;;4.05;2.00;;;36.50;27.00;;;;;;5015911;28;20038;-13
2022/08/12 11:47:48;;;;;;;3.60;2.08;;;36.20;26.90;;;;;;5014077;28;20036;-14
2022/08/12 11:50:14;;;;;;;4.05;2.20;;;36.00;27.40;;;;;;5015386;28;20041;-14
2022/08/12 11:52:40;;;;;;;2.78;1.95;;;35.90;27.60;;;;;;5015965;28;20035;-15
2022/08/12 11:55:06;;;;;;;1.90;1.70;;;35.70;28.10;;;;;;5015736;28;20026;-14
2022/08/12 11:57:32;;;;;;;2.85;1.70;;;35.50;28.50;;;;;;5015707;28;20040;-15
2022/08/12 11:59:58;;;;;;;2.25;1.90;;;35.50;28.60;;;;;;5015894;28;20022;-14
2022/08/12 12:02:24;;;;;;;2.33;1.90;;;35.70;27.90;;;;;;5015894;28;20048;-14
2022/08/12 12:04:50;;;;;;;1.95;1.73;;;35.80;27.60;;;;;;5015318;28;20129;-14
2022/08/12 12:07:16;;;;;;;2.50;1.83;;;35.90;26.90;;;;;;5015471;28;20049;-14
2022/08/12 12:09:42;;;;;;;3.85;1.98;;;35.70;27.20;;;;;;5015384;28;20022;-14
2022/08/12 12:12:08;;;;;;;4.38;2.00;;;35.30;27.70;;;;;;5015443;28;20026;-13
2022/08/12 12:14:34;;;;;;;2.92;2.13;;;35.20;27.90;;;;;;5015402;28;20034;-14
2022/08/12 12:17:00;;;;;;;2.17;1.92;;;35.00;28.00;;;;;;5015124;28;20033;-14
2022/08/12 12:19:26;;;;;;;2.55;1.92;;;34.90;27.50;;;;;;5015742;28;20022;-14
2022/08/12 12:21:52;;;;;;;3.95;2.00;;;35.00;27.70;;;;;;5015560;28;20018;-14
2022/08/12 12:24:19;;;;;;;3.50;2.17;;;35.10;27.60;;;;;;5015128;28;20551;-14
2022/08/12 12:26:45;;;;;;;3.88;2.10;;;35.00;27.70;;;;;;5015250;28;20022;-14
2022/08/12 12:29:11;;;;;;;3.83;1.90;;;34.50;28.00;;;;;;5014887;28;20140;-14
2022/08/12 12:31:37;;;;;;;2.45;2.08;;;34.20;28.00;;;;;;5015472;28;20104;-14
2022/08/12 12:34:03;;;;;;;4.20;1.80;;;33.80;28.20;;;;;;5014981;28;20494;-15
2022/08/12 12:36:29;;;;;;;2.30;1.90;;;33.70;28.40;;;;;;5015270;28;20030;-14
2022/08/12 12:38:54;;;;;;;3.08;2.00;;;33.70;28.50;;;;;;5014928;28;20537;-14
2022/08/12 12:41:20;;;;;;;2.33;2.00;;;33.60;28.70;;;;;;5014948;28;20370;-14
2022/08/12 12:43:46;;;;;;;2.17;1.70;;;33.60;28.70;;;;;;5013632;28;20069;-14
2022/08/12 12:46:12;;;;;;;4.72;1.90;;;33.50;28.70;;;;;;5014699;28;20032;-14
2022/08/12 12:48:38;;;;;;;2.88;2.00;;;33.40;29.10;;;;;;5014890;28;20393;-14
2022/08/12 12:51:16;;;;;;;2.83;1.88;;;33.20;29.10;;;;;;5014656;28;20032;-15
2022/08/12 12:53:45;;;;;;;2.72;2.00;;;33.00;29.40;;;;;;5014528;28;20034;-16
2022/08/12 12:56:19;;;;;;;2.42;1.92;;;32.80;29.70;;;;;;5014695;28;20022;-15
2022/08/12 12:58:50;;;;;;;2.03;1.83;;;32.70;29.80;;;;;;5014570;28;20420;-14
2022/08/12 13:01:24;;;;;;;2.42;1.90;;;32.70;29.70;;;;;;5014883;28;20029;-13
2022/08/12 13:03:55;;;;;;;5.70;2.38;;;32.70;29.80;;;;;;5014528;28;20536;-14
2022/08/12 13:06:28;;;;;;;3.92;2.00;;;32.70;30.30;;;;;;5014426;28;20054;-13
2022/08/12 13:08:56;;;;;;;4.43;2.08;;;32.50;30.70;;;;;;5014078;28;20460;-14
2022/08/12 13:11:23;;;;;;;3.83;2.17;;;32.50;31.00;;;;;;5014329;28;20026;-13
2022/08/12 13:13:52;;;;;;;2.55;2.00;;;32.30;31.30;;;;;;5014535;28;20038;-13
2022/08/12 13:16:20;;;;;;;4.15;2.25;;;32.30;31.50;;;;;;5014245;28;20083;-13
2022/08/12 13:18:51;;;;;;;1.90;1.80;;;32.30;31.00;;;;;;5014207;28;20064;-13
2022/08/12 13:21:18;;;;;;;4.55;2.28;;;32.20;31.20;;;;;;5014194;28;20072;-13
2022/08/12 13:23:45;;;;;;;2.30;2.10;;;32.20;31.30;;;;;;5013999;28;20470;-13
2022/08/12 13:26:14;;;;;;;4.93;2.25;;;32.20;31.40;;;;;;5014057;28;20030;-13
2022/08/12 13:28:44;;;;;;;4.90;2.40;;;32.00;31.50;;;;;;5014004;28;20053;-16
2022/08/12 13:31:12;;;;;;;3.03;2.50;;;32.00;31.80;;;;;;5014226;28;20025;-14
2022/08/12 13:33:38;;;;;;;2.92;2.30;;;31.90;32.50;;;;;;5014176;28;20030;-15
2022/08/12 13:36:05;;;;;;;4.28;2.20;;;31.40;33.90;;;;;;5014221;28;20053;-15
2022/08/12 13:38:39;;;;;;;3.08;2.30;;;31.10;34.10;;;;;;5013912;28;20073;-14
2022/08/12 13:41:07;;;;;;;4.60;2.35;;;30.90;34.90;;;;;;5013745;28;20041;-16
2022/08/12 13:43:33;;;;;;;4.82;2.50;;;30.70;35.40;;;;;;5013760;28;20385;-14
2022/08/12 13:46:00;;;;;;;4.93;2.63;;;30.50;36.00;;;;;;5013768;28;20585;-16
2022/08/12 13:48:27;;;;;;;4.97;2.70;;;30.40;36.40;;;;;;5013935;28;20030;-15
2022/08/12 13:50:53;;;;;;;3.55;2.72;;;30.40;37.00;;;;;;5012194;28;20029;-15
2022/08/12 13:53:19;;;;;;;5.55;2.80;;;30.20;37.50;;;;;;5014045;28;20037;-15
2022/08/12 13:55:48;;;;;;;4.75;2.65;;;30.20;37.70;;;;;;5013622;28;20018;-13
2022/08/12 13:58:19;;;;;;;4.22;2.70;;;30.20;37.30;;;;;;5013733;28;20022;-13
2022/08/12 14:00:50;;;;;;;6.50;2.60;;;30.20;37.40;;;;;;5013720;28;20058;-13
2022/08/12 14:03:18;;;;;;;3.97;2.42;;;30.20;37.50;;;;;;5013867;28;20053;-13
2022/08/12 14:05:44;;;;;;;2.47;2.28;;;30.20;37.60;;;;;;5013379;28;20486;-14
2022/08/12 14:08:13;;;;;;;2.58;2.30;;;30.20;37.30;;;;;;5013724;28;20033;-14
2022/08/12 14:10:52;;;;;;;2.97;2.65;;;30.40;37.30;;;;;;5013281;28;20030;-14
2022/08/12 14:13:26;;;;;;;2.75;2.38;;;30.60;37.20;;;;;;5013779;28;20034;-14
2022/08/12 14:15:56;;;;;;;3.95;2.38;;;30.80;37.50;;;;;;5013381;28;20436;-14
2022/08/12 14:18:24;;;;;;;4.75;2.70;;;30.70;36.90;;;;;;5013635;28;20029;-13
2022/08/12 14:21:02;;;;;;;3.53;2.47;;;30.80;36.70;;;;;;5013170;28;20105;-13
2022/08/12 14:23:31;;;;;;;3.90;2.50;;;30.80;36.80;;;;;;5013357;28;20037;-14
2022/08/12 14:25:59;;;;;;;4.50;2.63;;;30.90;36.70;;;;;;5013272;28;20037;-14
2022/08/12 14:28:31;;;;;;;6.22;2.45;;;30.90;35.80;;;;;;5013255;28;20026;-14
2022/08/12 14:31:05;;;;;;;5.30;2.50;;;31.00;36.80;;;;;;5013418;28;20149;-13
2022/08/12 14:33:35;;;;;;;5.00;2.42;;;31.20;36.10;;;;;;5013143;28;20129;-14
2022/08/12 14:36:03;;;;;;;4.57;2.50;;;31.10;35.00;;;;;;5013131;28;20119;-14
2022/08/12 14:38:38;;;;;;;4.75;2.63;;;31.10;35.80;;;;;;5013217;28;20080;-14
2022/08/12 14:41:14;;;;;;;5.70;2.72;;;31.00;35.40;;;;;;5013000;28;20022;-14
2022/08/12 14:43:42;;;;;;;8.55;2.78;;;31.00;35.40;;;;;;5013563;28;20462;-12
2022/08/12 14:46:14;;;;;;;4.70;2.80;;;30.70;35.20;;;;;;5013163;28;20034;-15